Frostburg, Maryland
Current Conditions -  °F | °C
As of 3:36 PM on Saturday 20 Dec 2014 (Local Time) from KCBE Reporting Station
Scattered Clouds Scattered Clouds  
Wind Chill: 36°   Ceiling: Unl
Heat Index: 36°   Visibility: 10mi
Dew Point: 23°   Wind: 0mph
Humidity: 60%   Direction: NA
Pressure: 30.25"   Gusts: NA
Location:  39.66°N, 78.93°W
Report Text: KCBE 202036Z AUTO 00000KT 10SM SCT100 02/M05 A3025 RMK AO1
Loading
Personal Weather Stations






























Interactive Weather Map New forecast layout! Learn more

10-Day Weather Forecast

Advertisements
Track Severe Weather on mobile